sensor_id;sensor_type;location;lat;lon;timestamp;P1;durP1;ratioP1;P2;durP2;ratioP2
22040;SDS011;11184;52.444;13.578;2023-07-24T00:01:09;3.40;;;2.50;;
22040;SDS011;11184;52.444;13.578;2023-07-24T00:03:54;5.70;;;2.95;;
22040;SDS011;11184;52.444;13.578;2023-07-24T00:06:39;3.05;;;2.47;;
22040;SDS011;11184;52.444;13.578;2023-07-24T00:09:24;5.43;;;2.22;;
22040;SDS011;11184;52.444;13.578;2023-07-24T00:12:09;2.63;;;2.00;;
22040;SDS011;11184;52.444;13.578;2023-07-24T00:14:53;2.78;;;1.88;;
22040;SDS011;11184;52.444;13.578;2023-07-24T00:17:38;3.67;;;2.55;;
22040;SDS011;11184;52.444;13.578;2023-07-24T00:20:22;4.00;;;2.67;;
22040;SDS011;11184;52.444;13.578;2023-07-24T00:23:08;4.28;;;2.45;;
22040;SDS011;11184;52.444;13.578;2023-07-24T00:25:53;3.63;;;2.53;;
22040;SDS011;11184;52.444;13.578;2023-07-24T00:28:37;4.25;;;2.63;;
22040;SDS011;11184;52.444;13.578;2023-07-24T00:31:22;2.58;;;2.30;;
22040;SDS011;11184;52.444;13.578;2023-07-24T00:34:06;3.97;;;3.10;;
22040;SDS011;11184;52.444;13.578;2023-07-24T00:36:51;2.38;;;2.17;;
22040;SDS011;11184;52.444;13.578;2023-07-24T00:39:36;3.45;;;1.98;;
22040;SDS011;11184;52.444;13.578;2023-07-24T00:42:20;5.45;;;3.17;;
22040;SDS011;11184;52.444;13.578;2023-07-24T00:45:05;3.15;;;2.67;;
22040;SDS011;11184;52.444;13.578;2023-07-24T00:47:50;4.03;;;2.53;;
22040;SDS011;11184;52.444;13.578;2023-07-24T00:50:35;6.18;;;3.28;;
22040;SDS011;11184;52.444;13.578;2023-07-24T00:53:20;2.55;;;2.08;;
22040;SDS011;11184;52.444;13.578;2023-07-24T00:56:05;3.17;;;1.95;;
22040;SDS011;11184;52.444;13.578;2023-07-24T00:58:51;5.10;;;2.97;;
22040;SDS011;11184;52.444;13.578;2023-07-24T01:01:37;7.50;;;3.05;;
22040;SDS011;11184;52.444;13.578;2023-07-24T01:04:22;6.20;;;2.92;;
22040;SDS011;11184;52.444;13.578;2023-07-24T01:07:07;4.43;;;2.35;;
22040;SDS011;11184;52.444;13.578;2023-07-24T01:09:52;3.00;;;2.55;;
22040;SDS011;11184;52.444;13.578;2023-07-24T01:15:45;5.32;;;2.88;;
22040;SDS011;11184;52.444;13.578;2023-07-24T01:18:32;2.70;;;2.17;;
22040;SDS011;11184;52.444;13.578;2023-07-24T01:21:20;4.03;;;3.15;;
22040;SDS011;11184;52.444;13.578;2023-07-24T01:24:36;4.80;;;3.05;;
22040;SDS011;11184;52.444;13.578;2023-07-24T01:27:23;4.40;;;3.15;;
22040;SDS011;11184;52.444;13.578;2023-07-24T01:30:08;3.53;;;2.72;;
22040;SDS011;11184;52.444;13.578;2023-07-24T01:32:53;4.40;;;3.30;;
22040;SDS011;11184;52.444;13.578;2023-07-24T01:35:38;5.13;;;3.92;;
22040;SDS011;11184;52.444;13.578;2023-07-24T01:38:26;3.97;;;2.60;;
22040;SDS011;11184;52.444;13.578;2023-07-24T01:41:11;5.03;;;2.88;;
22040;SDS011;11184;52.444;13.578;2023-07-24T01:43:58;4.05;;;3.03;;
22040;SDS011;11184;52.444;13.578;2023-07-24T01:46:43;2.83;;;2.38;;
22040;SDS011;11184;52.444;13.578;2023-07-24T01:49:28;3.47;;;3.15;;
22040;SDS011;11184;52.444;13.578;2023-07-24T01:52:13;4.15;;;2.53;;
22040;SDS011;11184;52.444;13.578;2023-07-24T01:54:57;4.75;;;3.10;;
22040;SDS011;11184;52.444;13.578;2023-07-24T01:57:42;4.43;;;2.88;;
22040;SDS011;11184;52.444;13.578;2023-07-24T02:00:27;6.38;;;3.03;;
22040;SDS011;11184;52.444;13.578;2023-07-24T02:03:11;6.78;;;2.90;;
22040;SDS011;11184;52.444;13.578;2023-07-24T02:05:56;5.68;;;3.00;;
22040;SDS011;11184;52.444;13.578;2023-07-24T02:08:40;2.80;;;2.50;;
22040;SDS011;11184;52.444;13.578;2023-07-24T02:11:30;3.08;;;2.67;;
22040;SDS011;11184;52.444;13.578;2023-07-24T02:14:17;3.67;;;2.83;;
22040;SDS011;11184;52.444;13.578;2023-07-24T02:17:01;3.30;;;2.35;;
22040;SDS011;11184;52.444;13.578;2023-07-24T02:19:46;7.78;;;2.38;;
22040;SDS011;11184;52.444;13.578;2023-07-24T02:22:31;5.88;;;2.42;;
22040;SDS011;11184;52.444;13.578;2023-07-24T02:25:15;3.20;;;1.75;;
22040;SDS011;11184;52.444;13.578;2023-07-24T02:28:00;3.88;;;2.47;;
22040;SDS011;11184;52.444;13.578;2023-07-24T02:30:46;5.28;;;2.20;;
22040;SDS011;11184;52.444;13.578;2023-07-24T02:33:31;5.88;;;3.80;;
22040;SDS011;11184;52.444;13.578;2023-07-24T02:36:15;5.15;;;1.88;;
22040;SDS011;11184;52.444;13.578;2023-07-24T02:39:00;3.63;;;2.25;;
22040;SDS011;11184;52.444;13.578;2023-07-24T02:41:45;2.40;;;1.60;;
22040;SDS011;11184;52.444;13.578;2023-07-24T02:44:30;2.42;;;1.95;;
22040;SDS011;11184;52.444;13.578;2023-07-24T02:47:14;5.60;;;2.60;;
22040;SDS011;11184;52.444;13.578;2023-07-24T02:49:59;4.55;;;2.22;;
22040;SDS011;11184;52.444;13.578;2023-07-24T02:52:43;2.38;;;1.83;;
22040;SDS011;11184;52.444;13.578;2023-07-24T02:55:28;2.83;;;1.95;;
22040;SDS011;11184;52.444;13.578;2023-07-24T02:58:13;3.65;;;1.88;;
22040;SDS011;11184;52.444;13.578;2023-07-24T03:01:04;3.05;;;2.30;;
22040;SDS011;11184;52.444;13.578;2023-07-24T03:03:50;2.08;;;1.42;;
22040;SDS011;11184;52.444;13.578;2023-07-24T03:06:35;5.30;;;1.88;;
22040;SDS011;11184;52.444;13.578;2023-07-24T03:09:19;2.72;;;2.10;;
22040;SDS011;11184;52.444;13.578;2023-07-24T03:12:04;2.58;;;1.98;;
22040;SDS011;11184;52.444;13.578;2023-07-24T03:14:49;2.70;;;1.60;;
22040;SDS011;11184;52.444;13.578;2023-07-24T03:17:33;2.65;;;1.65;;
22040;SDS011;11184;52.444;13.578;2023-07-24T03:20:18;3.40;;;2.00;;
22040;SDS011;11184;52.444;13.578;2023-07-24T03:23:03;2.72;;;1.48;;
22040;SDS011;11184;52.444;13.578;2023-07-24T03:25:47;3.35;;;1.65;;
22040;SDS011;11184;52.444;13.578;2023-07-24T03:28:32;2.65;;;1.65;;
22040;SDS011;11184;52.444;13.578;2023-07-24T03:31:16;2.15;;;1.55;;
22040;SDS011;11184;52.444;13.578;2023-07-24T03:34:01;1.90;;;1.30;;
22040;SDS011;11184;52.444;13.578;2023-07-24T03:36:46;2.00;;;1.60;;
22040;SDS011;11184;52.444;13.578;2023-07-24T03:39:30;2.92;;;1.48;;
22040;SDS011;11184;52.444;13.578;2023-07-24T03:42:36;2.63;;;1.33;;
22040;SDS011;11184;52.444;13.578;2023-07-24T03:45:20;3.42;;;1.50;;
22040;SDS011;11184;52.444;13.578;2023-07-24T03:48:05;2.10;;;1.42;;
22040;SDS011;11184;52.444;13.578;2023-07-24T03:50:50;1.65;;;0.98;;
22040;SDS011;11184;52.444;13.578;2023-07-24T03:53:34;3.50;;;1.42;;
22040;SDS011;11184;52.444;13.578;2023-07-24T03:56:19;6.35;;;1.60;;
22040;SDS011;11184;52.444;13.578;2023-07-24T03:59:05;2.33;;;1.38;;
22040;SDS011;11184;52.444;13.578;2023-07-24T04:01:49;1.80;;;1.10;;
22040;SDS011;11184;52.444;13.578;2023-07-24T04:04:34;3.58;;;1.35;;
22040;SDS011;11184;52.444;13.578;2023-07-24T04:07:19;2.45;;;1.10;;
22040;SDS011;11184;52.444;13.578;2023-07-24T04:10:03;4.13;;;1.08;;
22040;SDS011;11184;52.444;13.578;2023-07-24T04:12:48;3.58;;;1.13;;
22040;SDS011;11184;52.444;13.578;2023-07-24T04:15:34;2.03;;;1.40;;
22040;SDS011;11184;52.444;13.578;2023-07-24T04:18:18;1.75;;;0.90;;
22040;SDS011;11184;52.444;13.578;2023-07-24T04:21:03;1.67;;;1.17;;
22040;SDS011;11184;52.444;13.578;2023-07-24T04:23:47;1.33;;;0.70;;
22040;SDS011;11184;52.444;13.578;2023-07-24T04:26:32;4.15;;;1.00;;
22040;SDS011;11184;52.444;13.578;2023-07-24T04:29:17;1.88;;;1.00;;
22040;SDS011;11184;52.444;13.578;2023-07-24T04:32:01;3.15;;;1.80;;
22040;SDS011;11184;52.444;13.578;2023-07-24T04:34:46;2.05;;;0.88;;
22040;SDS011;11184;52.444;13.578;2023-07-24T04:37:31;3.47;;;1.17;;
22040;SDS011;11184;52.444;13.578;2023-07-24T04:40:15;2.95;;;0.88;;
22040;SDS011;11184;52.444;13.578;2023-07-24T04:43:00;1.63;;;0.90;;
22040;SDS011;11184;52.444;13.578;2023-07-24T04:45:45;2.70;;;0.80;;
22040;SDS011;11184;52.444;13.578;2023-07-24T04:48:30;3.10;;;1.02;;
22040;SDS011;11184;52.444;13.578;2023-07-24T04:51:15;1.30;;;1.00;;
22040;SDS011;11184;52.444;13.578;2023-07-24T04:53:59;1.65;;;0.95;;
22040;SDS011;11184;52.444;13.578;2023-07-24T04:56:44;9.20;;;1.50;;
22040;SDS011;11184;52.444;13.578;2023-07-24T04:59:28;2.15;;;0.88;;
22040;SDS011;11184;52.444;13.578;2023-07-24T05:02:13;1.90;;;0.90;;
22040;SDS011;11184;52.444;13.578;2023-07-24T05:04:58;3.17;;;0.95;;
22040;SDS011;11184;52.444;13.578;2023-07-24T05:07:42;2.55;;;0.77;;
22040;SDS011;11184;52.444;13.578;2023-07-24T05:10:27;2.00;;;1.08;;
22040;SDS011;11184;52.444;13.578;2023-07-24T05:13:11;1.92;;;0.95;;
22040;SDS011;11184;52.444;13.578;2023-07-24T05:15:56;1.15;;;0.60;;
22040;SDS011;11184;52.444;13.578;2023-07-24T05:18:41;4.10;;;1.25;;
22040;SDS011;11184;52.444;13.578;2023-07-24T05:21:25;2.60;;;1.67;;
22040;SDS011;11184;52.444;13.578;2023-07-24T05:24:10;2.03;;;1.10;;
22040;SDS011;11184;52.444;13.578;2023-07-24T05:26:55;2.35;;;1.45;;
22040;SDS011;11184;52.444;13.578;2023-07-24T05:29:40;1.58;;;0.65;;
22040;SDS011;11184;52.444;13.578;2023-07-24T05:32:24;2.97;;;1.00;;
22040;SDS011;11184;52.444;13.578;2023-07-24T05:35:09;1.95;;;1.23;;
22040;SDS011;11184;52.444;13.578;2023-07-24T05:37:53;1.15;;;0.88;;
22040;SDS011;11184;52.444;13.578;2023-07-24T05:40:38;1.17;;;1.00;;
22040;SDS011;11184;52.444;13.578;2023-07-24T05:43:23;1.20;;;0.65;;
22040;SDS011;11184;52.444;13.578;2023-07-24T05:46:08;1.38;;;0.82;;
22040;SDS011;11184;52.444;13.578;2023-07-24T05:48:52;1.48;;;1.10;;
22040;SDS011;11184;52.444;13.578;2023-07-24T05:51:37;5.55;;;0.80;;
22040;SDS011;11184;52.444;13.578;2023-07-24T05:54:22;2.20;;;0.88;;
22040;SDS011;11184;52.444;13.578;2023-07-24T05:57:07;2.28;;;1.17;;
22040;SDS011;11184;52.444;13.578;2023-07-24T05:59:51;2.38;;;0.95;;
22040;SDS011;11184;52.444;13.578;2023-07-24T06:02:36;1.10;;;1.00;;
22040;SDS011;11184;52.444;13.578;2023-07-24T06:05:21;3.25;;;1.58;;
22040;SDS011;11184;52.444;13.578;2023-07-24T06:08:05;2.53;;;1.25;;
22040;SDS011;11184;52.444;13.578;2023-07-24T06:10:52;1.20;;;0.75;;
22040;SDS011;11184;52.444;13.578;2023-07-24T06:13:37;1.77;;;1.38;;
22040;SDS011;11184;52.444;13.578;2023-07-24T06:16:21;2.97;;;1.25;;
22040;SDS011;11184;52.444;13.578;2023-07-24T06:19:06;2.17;;;1.15;;
22040;SDS011;11184;52.444;13.578;2023-07-24T06:21:51;1.92;;;1.60;;
22040;SDS011;11184;52.444;13.578;2023-07-24T06:24:35;2.72;;;1.63;;
22040;SDS011;11184;52.444;13.578;2023-07-24T06:27:20;1.60;;;1.25;;
22040;SDS011;11184;52.444;13.578;2023-07-24T06:30:05;2.38;;;1.48;;
22040;SDS011;11184;52.444;13.578;2023-07-24T06:32:50;2.60;;;1.33;;
22040;SDS011;11184;52.444;13.578;2023-07-24T06:35:34;2.15;;;1.33;;
22040;SDS011;11184;52.444;13.578;2023-07-24T06:38:19;3.38;;;2.20;;
22040;SDS011;11184;52.444;13.578;2023-07-24T06:41:04;2.22;;;1.42;;
22040;SDS011;11184;52.444;13.578;2023-07-24T06:43:49;3.75;;;2.22;;
22040;SDS011;11184;52.444;13.578;2023-07-24T06:46:34;3.50;;;1.52;;
22040;SDS011;11184;52.444;13.578;2023-07-24T06:49:18;1.73;;;1.30;;
22040;SDS011;11184;52.444;13.578;2023-07-24T06:52:03;3.38;;;2.08;;
22040;SDS011;11184;52.444;13.578;2023-07-24T06:54:48;3.53;;;1.55;;
22040;SDS011;11184;52.444;13.578;2023-07-24T06:57:33;2.03;;;1.63;;
22040;SDS011;11184;52.444;13.578;2023-07-24T07:00:17;2.95;;;1.88;;
22040;SDS011;11184;52.444;13.578;2023-07-24T07:03:03;2.25;;;2.05;;
22040;SDS011;11184;52.444;13.578;2023-07-24T07:05:47;4.25;;;2.25;;
22040;SDS011;11184;52.444;13.578;2023-07-24T07:08:32;1.95;;;1.50;;
22040;SDS011;11184;52.444;13.578;2023-07-24T07:11:16;3.83;;;1.70;;
22040;SDS011;11184;52.444;13.578;2023-07-24T07:14:01;4.07;;;2.03;;
22040;SDS011;11184;52.444;13.578;2023-07-24T07:16:45;2.95;;;1.42;;
22040;SDS011;11184;52.444;13.578;2023-07-24T07:19:32;2.38;;;1.95;;
22040;SDS011;11184;52.444;13.578;2023-07-24T07:22:17;2.25;;;1.88;;
22040;SDS011;11184;52.444;13.578;2023-07-24T07:25:02;3.47;;;2.00;;
22040;SDS011;11184;52.444;13.578;2023-07-24T07:27:47;2.20;;;1.90;;
22040;SDS011;11184;52.444;13.578;2023-07-24T07:30:31;2.08;;;1.80;;
22040;SDS011;11184;52.444;13.578;2023-07-24T07:33:16;2.20;;;2.00;;
22040;SDS011;11184;52.444;13.578;2023-07-24T07:36:00;2.08;;;1.70;;
22040;SDS011;11184;52.444;13.578;2023-07-24T07:38:47;2.47;;;1.60;;
22040;SDS011;11184;52.444;13.578;2023-07-24T07:41:31;2.28;;;2.00;;
22040;SDS011;11184;52.444;13.578;2023-07-24T07:44:16;2.28;;;1.73;;
22040;SDS011;11184;52.444;13.578;2023-07-24T07:47:01;5.25;;;4.75;;
22040;SDS011;11184;52.444;13.578;2023-07-24T07:49:45;2.65;;;1.67;;
22040;SDS011;11184;52.444;13.578;2023-07-24T07:52:30;2.35;;;1.75;;
22040;SDS011;11184;52.444;13.578;2023-07-24T07:55:15;1.83;;;1.52;;
22040;SDS011;11184;52.444;13.578;2023-07-24T07:57:59;4.00;;;2.20;;
22040;SDS011;11184;52.444;13.578;2023-07-24T08:00:44;1.80;;;1.35;;
22040;SDS011;11184;52.444;13.578;2023-07-24T08:03:28;2.05;;;1.45;;
22040;SDS011;11184;52.444;13.578;2023-07-24T08:06:13;3.33;;;1.55;;
22040;SDS011;11184;52.444;13.578;2023-07-24T08:08:57;2.90;;;1.30;;
22040;SDS011;11184;52.444;13.578;2023-07-24T08:11:42;4.43;;;1.05;;
22040;SDS011;11184;52.444;13.578;2023-07-24T08:14:26;1.83;;;1.17;;
22040;SDS011;11184;52.444;13.578;2023-07-24T08:17:11;2.35;;;1.20;;
22040;SDS011;11184;52.444;13.578;2023-07-24T08:19:56;2.75;;;2.53;;
22040;SDS011;11184;52.444;13.578;2023-07-24T08:22:40;1.48;;;1.23;;
22040;SDS011;11184;52.444;13.578;2023-07-24T08:25:24;5.28;;;1.75;;
22040;SDS011;11184;52.444;13.578;2023-07-24T08:28:09;2.17;;;1.40;;
22040;SDS011;11184;52.444;13.578;2023-07-24T08:30:58;4.40;;;1.65;;
22040;SDS011;11184;52.444;13.578;2023-07-24T08:33:42;2.25;;;1.15;;
22040;SDS011;11184;52.444;13.578;2023-07-24T08:36:27;2.42;;;1.73;;
22040;SDS011;11184;52.444;13.578;2023-07-24T08:39:13;2.08;;;1.40;;
22040;SDS011;11184;52.444;13.578;2023-07-24T08:41:57;1.48;;;1.30;;
22040;SDS011;11184;52.444;13.578;2023-07-24T08:44:42;1.10;;;0.82;;
22040;SDS011;11184;52.444;13.578;2023-07-24T08:47:27;3.83;;;1.35;;
22040;SDS011;11184;52.444;13.578;2023-07-24T08:50:15;1.73;;;1.00;;
22040;SDS011;11184;52.444;13.578;2023-07-24T08:53:01;5.15;;;1.75;;
22040;SDS011;11184;52.444;13.578;2023-07-24T08:55:47;2.13;;;1.30;;
22040;SDS011;11184;52.444;13.578;2023-07-24T08:58:33;2.67;;;1.08;;
22040;SDS011;11184;52.444;13.578;2023-07-24T09:01:19;1.65;;;1.10;;
22040;SDS011;11184;52.444;13.578;2023-07-24T09:04:03;3.38;;;1.20;;
22040;SDS011;11184;52.444;13.578;2023-07-24T09:06:48;4.25;;;1.10;;
22040;SDS011;11184;52.444;13.578;2023-07-24T09:09:33;2.38;;;1.38;;
22040;SDS011;11184;52.444;13.578;2023-07-24T09:12:17;2.40;;;1.55;;
22040;SDS011;11184;52.444;13.578;2023-07-24T09:15:05;2.22;;;1.52;;
22040;SDS011;11184;52.444;13.578;2023-07-24T09:17:50;1.73;;;1.15;;
22040;SDS011;11184;52.444;13.578;2023-07-24T09:20:39;2.15;;;1.08;;
22040;SDS011;11184;52.444;13.578;2023-07-24T09:23:27;1.10;;;1.00;;
22040;SDS011;11184;52.444;13.578;2023-07-24T09:26:12;1.63;;;1.08;;
22040;SDS011;11184;52.444;13.578;2023-07-24T09:28:56;3.65;;;1.20;;
22040;SDS011;11184;52.444;13.578;2023-07-24T09:31:41;3.03;;;1.40;;
22040;SDS011;11184;52.444;13.578;2023-07-24T09:34:27;1.63;;;1.10;;
22040;SDS011;11184;52.444;13.578;2023-07-24T09:37:21;1.58;;;1.17;;
22040;SDS011;11184;52.444;13.578;2023-07-24T09:40:06;3.17;;;1.42;;
22040;SDS011;11184;52.444;13.578;2023-07-24T09:42:51;2.50;;;1.35;;
22040;SDS011;11184;52.444;13.578;2023-07-24T09:45:36;2.55;;;1.73;;
22040;SDS011;11184;52.444;13.578;2023-07-24T09:48:21;2.00;;;1.30;;
22040;SDS011;11184;52.444;13.578;2023-07-24T09:51:06;1.98;;;1.10;;
22040;SDS011;11184;52.444;13.578;2023-07-24T09:54:09;2.45;;;1.27;;
22040;SDS011;11184;52.444;13.578;2023-07-24T09:56:57;2.03;;;1.25;;
22040;SDS011;11184;52.444;13.578;2023-07-24T09:59:42;4.72;;;3.60;;
22040;SDS011;11184;52.444;13.578;2023-07-24T10:02:28;2.65;;;1.42;;
22040;SDS011;11184;52.444;13.578;2023-07-24T10:05:13;4.80;;;2.20;;
22040;SDS011;11184;52.444;13.578;2023-07-24T10:07:58;2.42;;;1.58;;
22040;SDS011;11184;52.444;13.578;2023-07-24T10:10:42;2.20;;;1.67;;
22040;SDS011;11184;52.444;13.578;2023-07-24T10:13:27;2.25;;;1.67;;
22040;SDS011;11184;52.444;13.578;2023-07-24T10:16:13;5.70;;;2.20;;
22040;SDS011;11184;52.444;13.578;2023-07-24T10:18:57;2.38;;;2.03;;
22040;SDS011;11184;52.444;13.578;2023-07-24T10:21:46;5.35;;;2.15;;
22040;SDS011;11184;52.444;13.578;2023-07-24T10:24:33;6.72;;;1.63;;
22040;SDS011;11184;52.444;13.578;2023-07-24T10:27:22;2.58;;;2.13;;
22040;SDS011;11184;52.444;13.578;2023-07-24T10:30:07;4.40;;;2.22;;
22040;SDS011;11184;52.444;13.578;2023-07-24T10:32:52;4.03;;;2.00;;
22040;SDS011;11184;52.444;13.578;2023-07-24T10:35:41;3.33;;;1.88;;
22040;SDS011;11184;52.444;13.578;2023-07-24T10:38:33;5.80;;;2.40;;
22040;SDS011;11184;52.444;13.578;2023-07-24T10:41:18;2.17;;;1.85;;
22040;SDS011;11184;52.444;13.578;2023-07-24T10:44:03;2.67;;;2.20;;
22040;SDS011;11184;52.444;13.578;2023-07-24T10:46:48;3.58;;;2.88;;
22040;SDS011;11184;52.444;13.578;2023-07-24T10:49:33;7.32;;;2.88;;
22040;SDS011;11184;52.444;13.578;2023-07-24T10:52:21;5.25;;;3.35;;
22040;SDS011;11184;52.444;13.578;2023-07-24T10:55:11;4.65;;;3.13;;
22040;SDS011;11184;52.444;13.578;2023-07-24T10:57:57;5.80;;;3.38;;
22040;SDS011;11184;52.444;13.578;2023-07-24T11:00:44;4.07;;;2.65;;
22040;SDS011;11184;52.444;13.578;2023-07-24T11:03:35;4.78;;;2.90;;
22040;SDS011;11184;52.444;13.578;2023-07-24T11:06:20;5.65;;;2.90;;
22040;SDS011;11184;52.444;13.578;2023-07-24T11:09:08;4.97;;;3.03;;
22040;SDS011;11184;52.444;13.578;2023-07-24T11:11:52;3.97;;;2.90;;
22040;SDS011;11184;52.444;13.578;2023-07-24T11:14:50;4.05;;;2.85;;
22040;SDS011;11184;52.444;13.578;2023-07-24T11:17:35;11.88;;;4.43;;
22040;SDS011;11184;52.444;13.578;2023-07-24T11:20:24;6.32;;;3.75;;
22040;SDS011;11184;52.444;13.578;2023-07-24T11:23:09;5.78;;;3.42;;
22040;SDS011;11184;52.444;13.578;2023-07-24T11:25:54;3.90;;;3.28;;
22040;SDS011;11184;52.444;13.578;2023-07-24T11:28:39;4.60;;;3.58;;
22040;SDS011;11184;52.444;13.578;2023-07-24T11:31:23;5.53;;;2.97;;
22040;SDS011;11184;52.444;13.578;2023-07-24T11:34:08;5.15;;;2.88;;
22040;SDS011;11184;52.444;13.578;2023-07-24T11:36:53;4.43;;;3.47;;
22040;SDS011;11184;52.444;13.578;2023-07-24T11:39:37;4.53;;;4.13;;
22040;SDS011;11184;52.444;13.578;2023-07-24T11:42:24;3.78;;;3.38;;
22040;SDS011;11184;52.444;13.578;2023-07-24T11:45:09;5.10;;;3.65;;
22040;SDS011;11184;52.444;13.578;2023-07-24T11:47:53;4.88;;;3.05;;
22040;SDS011;11184;52.444;13.578;2023-07-24T11:50:46;7.65;;;3.88;;
22040;SDS011;11184;52.444;13.578;2023-07-24T11:53:31;6.30;;;3.47;;
22040;SDS011;11184;52.444;13.578;2023-07-24T11:56:16;6.72;;;3.60;;
22040;SDS011;11184;52.444;13.578;2023-07-24T11:59:14;6.07;;;3.88;;
22040;SDS011;11184;52.444;13.578;2023-07-24T12:01:59;7.28;;;3.45;;
22040;SDS011;11184;52.444;13.578;2023-07-24T12:04:45;4.53;;;4.05;;
22040;SDS011;11184;52.444;13.578;2023-07-24T12:07:33;4.97;;;3.95;;
22040;SDS011;11184;52.444;13.578;2023-07-24T12:10:25;4.07;;;3.50;;
22040;SDS011;11184;52.444;13.578;2023-07-24T12:13:13;3.53;;;2.92;;
22040;SDS011;11184;52.444;13.578;2023-07-24T12:15:58;5.80;;;3.92;;
22040;SDS011;11184;52.444;13.578;2023-07-24T12:18:42;5.53;;;3.40;;
22040;SDS011;11184;52.444;13.578;2023-07-24T12:21:27;6.72;;;3.97;;
22040;SDS011;11184;52.444;13.578;2023-07-24T12:24:12;12.95;;;4.50;;
22040;SDS011;11184;52.444;13.578;2023-07-24T12:26:57;5.55;;;3.90;;
22040;SDS011;11184;52.444;13.578;2023-07-24T12:29:41;21.42;;;4.60;;
22040;SDS011;11184;52.444;13.578;2023-07-24T12:32:26;10.27;;;4.00;;
22040;SDS011;11184;52.444;13.578;2023-07-24T12:35:11;9.23;;;4.28;;
22040;SDS011;11184;52.444;13.578;2023-07-24T12:37:56;6.57;;;4.03;;
22040;SDS011;11184;52.444;13.578;2023-07-24T12:40:41;6.28;;;4.25;;
22040;SDS011;11184;52.444;13.578;2023-07-24T12:43:26;15.05;;;4.55;;
22040;SDS011;11184;52.444;13.578;2023-07-24T12:46:10;5.80;;;5.00;;
22040;SDS011;11184;52.444;13.578;2023-07-24T12:48:55;4.25;;;3.80;;
22040;SDS011;11184;52.444;13.578;2023-07-24T12:51:40;6.40;;;5.07;;
22040;SDS011;11184;52.444;13.578;2023-07-24T12:54:25;7.78;;;3.95;;
22040;SDS011;11184;52.444;13.578;2023-07-24T12:57:10;5.65;;;4.32;;
22040;SDS011;11184;52.444;13.578;2023-07-24T12:59:54;5.53;;;3.97;;
22040;SDS011;11184;52.444;13.578;2023-07-24T13:02:39;5.22;;;4.20;;
22040;SDS011;11184;52.444;13.578;2023-07-24T13:05:23;5.95;;;4.38;;
22040;SDS011;11184;52.444;13.578;2023-07-24T13:08:08;3.10;;;2.55;;
22040;SDS011;11184;52.444;13.578;2023-07-24T13:10:53;4.13;;;3.65;;
22040;SDS011;11184;52.444;13.578;2023-07-24T13:13:37;4.13;;;3.40;;
22040;SDS011;11184;52.444;13.578;2023-07-24T13:16:22;4.70;;;3.50;;
22040;SDS011;11184;52.444;13.578;2023-07-24T13:19:07;3.08;;;2.75;;
22040;SDS011;11184;52.444;13.578;2023-07-24T13:21:51;9.60;;;3.60;;
22040;SDS011;11184;52.444;13.578;2023-07-24T13:24:36;6.82;;;3.47;;
22040;SDS011;11184;52.444;13.578;2023-07-24T13:27:20;4.00;;;2.28;;
22040;SDS011;11184;52.444;13.578;2023-07-24T13:30:05;7.68;;;2.97;;
22040;SDS011;11184;52.444;13.578;2023-07-24T13:32:50;4.25;;;3.28;;
22040;SDS011;11184;52.444;13.578;2023-07-24T13:35:35;3.55;;;2.45;;
22040;SDS011;11184;52.444;13.578;2023-07-24T13:38:19;5.97;;;3.17;;
22040;SDS011;11184;52.444;13.578;2023-07-24T13:41:04;7.63;;;3.53;;
22040;SDS011;11184;52.444;13.578;2023-07-24T13:43:49;4.57;;;2.50;;
22040;SDS011;11184;52.444;13.578;2023-07-24T13:46:33;7.72;;;3.20;;
22040;SDS011;11184;52.444;13.578;2023-07-24T13:49:18;7.95;;;3.05;;
22040;SDS011;11184;52.444;13.578;2023-07-24T13:52:03;4.45;;;2.83;;
22040;SDS011;11184;52.444;13.578;2023-07-24T13:54:47;3.97;;;2.85;;
22040;SDS011;11184;52.444;13.578;2023-07-24T13:57:32;5.40;;;2.85;;
22040;SDS011;11184;52.444;13.578;2023-07-24T14:00:17;4.35;;;2.08;;
22040;SDS011;11184;52.444;13.578;2023-07-24T14:03:01;4.25;;;2.92;;
22040;SDS011;11184;52.444;13.578;2023-07-24T14:05:46;2.53;;;2.15;;
22040;SDS011;11184;52.444;13.578;2023-07-24T14:08:30;15.23;;;2.95;;
22040;SDS011;11184;52.444;13.578;2023-07-24T14:11:15;3.40;;;2.55;;
22040;SDS011;11184;52.444;13.578;2023-07-24T14:13:59;4.95;;;2.83;;
22040;SDS011;11184;52.444;13.578;2023-07-24T14:16:44;4.82;;;2.58;;
22040;SDS011;11184;52.444;13.578;2023-07-24T14:19:29;4.00;;;2.58;;
22040;SDS011;11184;52.444;13.578;2023-07-24T14:22:13;5.07;;;3.10;;
22040;SDS011;11184;52.444;13.578;2023-07-24T14:24:58;2.95;;;2.13;;
22040;SDS011;11184;52.444;13.578;2023-07-24T14:27:43;3.40;;;2.70;;
22040;SDS011;11184;52.444;13.578;2023-07-24T14:30:27;4.90;;;3.42;;
22040;SDS011;11184;52.444;13.578;2023-07-24T14:33:12;5.70;;;3.20;;
22040;SDS011;11184;52.444;13.578;2023-07-24T14:35:57;5.00;;;2.42;;
22040;SDS011;11184;52.444;13.578;2023-07-24T14:38:42;3.20;;;2.72;;
22040;SDS011;11184;52.444;13.578;2023-07-24T14:41:27;5.82;;;2.65;;
22040;SDS011;11184;52.444;13.578;2023-07-24T14:44:12;4.82;;;3.13;;
22040;SDS011;11184;52.444;13.578;2023-07-24T14:46:57;4.82;;;3.40;;
22040;SDS011;11184;52.444;13.578;2023-07-24T14:49:41;6.60;;;2.22;;
22040;SDS011;11184;52.444;13.578;2023-07-24T14:52:26;3.47;;;2.95;;
22040;SDS011;11184;52.444;13.578;2023-07-24T14:55:11;9.60;;;3.75;;
22040;SDS011;11184;52.444;13.578;2023-07-24T14:57:55;4.43;;;2.80;;
22040;SDS011;11184;52.444;13.578;2023-07-24T15:00:39;8.48;;;3.45;;
22040;SDS011;11184;52.444;13.578;2023-07-24T15:03:24;9.02;;;3.63;;
22040;SDS011;11184;52.444;13.578;2023-07-24T15:06:09;4.18;;;2.92;;
22040;SDS011;11184;52.444;13.578;2023-07-24T15:08:53;5.85;;;3.95;;
22040;SDS011;11184;52.444;13.578;2023-07-24T15:11:39;3.60;;;2.45;;
22040;SDS011;11184;52.444;13.578;2023-07-24T15:14:24;6.85;;;3.50;;
22040;SDS011;11184;52.444;13.578;2023-07-24T15:17:09;5.15;;;3.08;;
22040;SDS011;11184;52.444;13.578;2023-07-24T15:19:56;4.00;;;2.95;;
22040;SDS011;11184;52.444;13.578;2023-07-24T15:22:41;3.78;;;2.97;;
22040;SDS011;11184;52.444;13.578;2023-07-24T15:25:25;2.90;;;2.65;;
22040;SDS011;11184;52.444;13.578;2023-07-24T15:28:10;4.10;;;3.03;;
22040;SDS011;11184;52.444;13.578;2023-07-24T15:30:55;3.47;;;2.65;;
22040;SDS011;11184;52.444;13.578;2023-07-24T15:33:40;3.75;;;2.88;;
22040;SDS011;11184;52.444;13.578;2023-07-24T15:36:24;4.70;;;3.05;;
22040;SDS011;11184;52.444;13.578;2023-07-24T15:39:09;5.50;;;3.78;;
22040;SDS011;11184;52.444;13.578;2023-07-24T15:41:54;6.55;;;3.75;;
22040;SDS011;11184;52.444;13.578;2023-07-24T15:44:38;9.55;;;4.05;;
22040;SDS011;11184;52.444;13.578;2023-07-24T15:47:23;3.17;;;2.58;;
22040;SDS011;11184;52.444;13.578;2023-07-24T15:50:10;5.90;;;3.40;;
22040;SDS011;11184;52.444;13.578;2023-07-24T15:52:54;4.55;;;4.15;;
22040;SDS011;11184;52.444;13.578;2023-07-24T15:55:39;3.50;;;2.88;;
22040;SDS011;11184;52.444;13.578;2023-07-24T15:58:23;4.85;;;3.47;;
22040;SDS011;11184;52.444;13.578;2023-07-24T16:01:08;4.65;;;2.80;;
22040;SDS011;11184;52.444;13.578;2023-07-24T16:03:53;4.32;;;2.92;;
22040;SDS011;11184;52.444;13.578;2023-07-24T16:06:37;5.20;;;4.00;;
22040;SDS011;11184;52.444;13.578;2023-07-24T16:09:22;5.00;;;3.90;;
22040;SDS011;11184;52.444;13.578;2023-07-24T16:12:07;3.47;;;2.90;;
22040;SDS011;11184;52.444;13.578;2023-07-24T16:14:51;3.45;;;3.08;;
22040;SDS011;11184;52.444;13.578;2023-07-24T16:17:36;4.20;;;3.45;;
22040;SDS011;11184;52.444;13.578;2023-07-24T16:20:21;8.10;;;4.70;;
22040;SDS011;11184;52.444;13.578;2023-07-24T16:23:05;3.55;;;2.70;;